To NAV CANADA Home Page Login to a new session Search on AWWS site Feedback and Comments Disclaimer Vers la page française équivalente Tips FAQ What's new on the site To the Forecasts and Observations / NOTAM section To "File a Flight Plan" website Publications and other links Update of the User's profile FIC Telephone Numbers My Weather Data Folder Route Weather Data Regional Weather Data Local Weather Data To the Forecasts and Observations / NOTAM section
Request Generated 07/28/2016 at 18:17:20 UTC . Weather information available at that time is displayed.

METAR/TAF

GREENWOOD/NS    

METAR CYZX 281800Z 29007KT 15SM FEW038 OVC250 31/19 A2989 RMK CU2CI2 WNDY HILL 32008KT SLP123=
METAR CYZX 281700Z 28007KT 15SM FEW038 OVC250 31/17 A2991 RMK CU2CI2 WNDY HILL 29006KT SLP127=
METAR CYZX 281600Z 26010KT 15SM OVC250 29/17 A2992 RMK CS6 WNDY HILL 23005KT SLP130=

TAF CYZX 281730Z 2818/2918 28008KT P6SM SCT060 OVC250 TEMPO 2818/2908
BKN060 OVC250
BECMG 2900/2902 VRB03KT
FM290800 27005KT P6SM BKN020
FM291500 30005KT P6SM SCT020 BKN060
RMK NXT FCST BY 290000Z=
Your time UTC time
Weather data provided by Environment Canada and NAV CANADA